Time;durP1;ratioP1;P1;durP2;ratioP2;P2;SDS_P1;SDS_P2;PMS_P1;PMS_P2;Temp;Humidity;BMP_temperature;BMP_pressure;BME280_temperature;BME280_humidity;BME280_pressure;Samples;Min_cycle;Max_cycle;Signal;HPM_P1;HPM_P2
2022/05/02 00:00:20;;;;;;;18.60;11.80;;;;;;;11.92;49.58;100716.73;107713;1291;23202;-78
2022/05/02 00:02:47;;;;;;;15.30;12.10;;;;;;;11.88;49.82;100722.41;107741;1290;22488;-85
2022/05/02 00:05:14;;;;;;;18.10;11.80;;;;;;;11.84;49.91;100720.68;107478;1291;22517;-81
2022/05/02 00:07:41;;;;;;;16.10;11.60;;;;;;;11.81;49.98;100718.77;107698;1290;22374;-80
2022/05/02 00:10:08;;;;;;;18.90;13.00;;;;;;;11.80;50.03;100723.38;107504;1293;22371;-79
2022/05/02 00:12:35;;;;;;;14.70;11.90;;;;;;;11.80;50.07;100719.31;107655;1290;22476;-80
2022/05/02 00:15:01;;;;;;;17.00;13.10;;;;;;;11.80;50.08;100720.37;107636;1290;22475;-80
2022/05/02 00:20:12;;;;;;;16.20;12.50;;;;;;;11.75;50.31;100715.65;107769;1290;22589;-80
2022/05/02 00:22:40;;;;;;;18.80;12.90;;;;;;;11.69;50.34;100717.80;107747;1290;22291;-80
2022/05/02 00:25:06;;;;;;;17.00;12.60;;;;;;;11.68;50.33;100719.24;107754;1290;23133;-80
2022/05/02 00:27:33;;;;;;;16.10;11.70;;;;;;;11.62;50.49;100722.11;108017;1290;22389;-82
2022/05/02 00:30:00;;;;;;;15.70;11.50;;;;;;;11.58;50.73;100717.02;108010;1290;22462;-82
2022/05/02 00:32:26;;;;;;;16.10;11.60;;;;;;;11.59;50.60;100716.32;107723;1290;22642;-77
2022/05/02 00:34:52;;;;;;;16.90;11.90;;;;;;;11.58;50.94;100713.51;108028;1290;22479;-77
2022/05/02 00:37:19;;;;;;;16.60;11.30;;;;;;;11.56;50.89;100711.59;107746;1290;22369;-78
2022/05/02 00:39:45;;;;;;;15.80;11.90;;;;;;;11.53;50.96;100716.00;107997;1290;22339;-76
2022/05/02 00:42:11;;;;;;;19.70;12.10;;;;;;;11.51;51.10;100720.94;107734;1290;23174;-79
2022/05/02 00:44:43;;;;;;;16.80;11.60;;;;;;;11.51;51.13;100716.54;108018;1290;23022;-80
2022/05/02 00:47:09;;;;;;;14.10;11.10;;;;;;;11.52;51.31;100716.17;107992;1289;22620;-79
2022/05/02 00:49:39;;;;;;;18.00;11.30;;;;;;;11.53;51.35;100720.59;107161;1297;22649;-78
2022/05/02 00:52:05;;;;;;;16.70;11.10;;;;;;;11.50;51.37;100717.43;107222;1297;22446;-79
2022/05/02 00:54:33;;;;;;;16.40;11.20;;;;;;;11.47;51.52;100719.58;107138;1298;22525;-77
2022/05/02 00:56:59;;;;;;;14.70;11.10;;;;;;;11.47;51.64;100720.30;107167;1297;23222;-78
2022/05/02 00:59:27;;;;;;;15.20;10.70;;;;;;;11.47;51.58;100722.75;107142;1298;23228;-77
2022/05/02 01:01:54;;;;;;;14.10;10.80;;;;;;;11.45;51.63;100716.06;107206;1297;22395;-77
2022/05/02 01:04:21;;;;;;;13.50;10.20;;;;;;;11.44;51.62;100719.77;107199;1297;23225;-77
2022/05/02 01:09:32;;;;;;;14.20;9.20;;;;;;;11.29;51.87;100719.52;107768;1290;22452;-78
2022/05/02 01:11:58;;;;;;;15.60;10.30;;;;;;;11.25;52.10;100713.20;107701;1290;22346;-78
2022/05/02 01:14:24;;;;;;;13.80;10.20;;;;;;;11.25;52.05;100713.90;108100;1290;22612;-78
2022/05/02 01:16:51;;;;;;;13.70;10.10;;;;;;;11.25;52.28;100708.96;107796;1290;22386;-77
2022/05/02 01:19:17;;;;;;;14.00;10.30;;;;;;;11.25;52.30;100712.86;107804;1290;22492;-78
2022/05/02 01:21:44;;;;;;;14.70;9.70;;;;;;;11.26;52.23;100708.44;107904;1290;22414;-77
2022/05/02 01:24:11;;;;;;;11.50;9.20;;;;;;;11.24;52.26;100707.92;108030;1290;22518;-81
2022/05/02 01:26:37;;;;;;;15.40;10.30;;;;;;;11.21;52.36;100706.34;108122;1290;22549;-82
2022/05/02 01:29:06;;;;;;;11.40;9.30;;;;;;;11.21;52.48;100705.83;108069;1290;22411;-82
2022/05/02 01:31:32;;;;;;;16.30;9.70;;;;;;;11.19;52.34;100706.20;108302;1290;23120;-81
2022/05/02 01:34:00;;;;;;;14.90;9.60;;;;;;;11.19;52.39;100704.08;107990;1290;22993;-81
2022/05/02 01:36:26;;;;;;;15.00;9.90;;;;;;;11.19;52.39;100706.02;108259;1290;23119;-81
2022/05/02 01:38:53;;;;;;;14.40;10.20;;;;;;;11.17;52.45;100711.32;108156;1290;22357;-81
2022/05/02 01:41:19;;;;;;;13.70;9.20;;;;;;;11.15;52.50;100709.75;107813;1290;22412;-81
2022/05/02 01:43:45;;;;;;;15.70;9.30;;;;;;;11.12;52.66;100709.23;108194;1290;22979;-79
2022/05/02 01:46:13;;;;;;;14.90;9.90;;;;;;;11.09;52.69;100709.43;108176;1290;22533;-79
2022/05/02 01:48:40;;;;;;;12.40;9.70;;;;;;;11.07;52.79;100703.63;107559;1289;22357;-80
2022/05/02 01:51:06;;;;;;;11.10;8.70;;;;;;;11.00;52.90;100707.55;107716;1290;22145;-81
2022/05/02 01:53:32;;;;;;;16.60;9.70;;;;;;;10.96;52.92;100704.22;107254;1296;22407;-80
2022/05/02 01:55:59;;;;;;;14.70;9.80;;;;;;;10.93;53.11;100705.84;107222;1295;22529;-81
2022/05/02 01:58:25;;;;;;;14.90;9.60;;;;;;;10.92;53.20;100703.01;107281;1295;22476;-80
2022/05/02 02:00:51;;;;;;;13.30;10.00;;;;;;;10.92;53.33;100706.70;107282;1296;22246;-80
2022/05/02 02:03:18;;;;;;;14.70;9.20;;;;;;;10.88;53.33;100708.84;107264;1296;22404;-80
2022/05/02 02:05:50;;;;;;;15.50;10.00;;;;;;;10.85;53.45;100709.02;107262;1295;22514;-79
2022/05/02 02:08:22;;;;;;;12.00;9.80;;;;;;;10.81;53.40;100711.01;107251;1296;22512;-78
2022/05/02 02:10:50;;;;;;;13.40;9.80;;;;;;;10.76;53.59;100714.19;107222;1293;22184;-82
2022/05/02 02:13:17;;;;;;;13.80;10.00;;;;;;;10.72;53.82;100713.33;107638;1290;22512;-82
2022/05/02 02:15:43;;;;;;;13.80;9.50;;;;;;;10.71;53.95;100715.98;107731;1292;22330;-82
2022/05/02 02:18:10;;;;;;;12.30;9.60;;;;;;;10.67;54.08;100712.65;107775;1290;22413;-81
2022/05/02 02:20:36;;;;;;;12.20;9.30;;;;;;;10.62;54.15;100712.48;107745;1291;22376;-82
2022/05/02 02:23:03;;;;;;;14.60;10.20;;;;;;;10.55;54.31;100710.58;107720;1290;22979;-82
2022/05/02 02:25:32;;;;;;;14.70;10.20;;;;;;;10.48;54.51;100707.79;107651;1290;23206;-81
2022/05/02 02:28:00;;;;;;;12.30;9.20;;;;;;;10.46;54.69;100706.90;107711;1291;22218;-81
2022/05/02 02:30:28;;;;;;;10.40;9.10;;;;;;;10.47;54.93;100706.39;107563;1290;23162;-81
2022/05/02 02:32:55;;;;;;;14.00;9.60;;;;;;;10.38;54.96;100709.19;107755;1290;22438;-81
2022/05/02 02:35:21;;;;;;;13.70;9.90;;;;;;;10.30;55.11;100713.27;107623;1290;22395;-80
2022/05/02 02:37:48;;;;;;;14.00;10.00;;;;;;;10.28;55.32;100713.80;107614;1290;22357;-79
2022/05/02 02:40:15;;;;;;;12.30;9.50;;;;;;;10.29;55.45;100710.45;108011;1290;22463;-78
2022/05/02 02:42:42;;;;;;;11.10;9.40;;;;;;;10.30;55.50;100712.75;108017;1290;22314;-79
2022/05/02 02:45:09;;;;;;;16.90;10.00;;;;;;;10.32;55.56;100714.33;108001;1290;22268;-78
2022/05/02 02:47:35;;;;;;;14.40;9.50;;;;;;;10.29;55.51;100709.94;108012;1290;22284;-79
2022/05/02 02:50:02;;;;;;;13.60;9.50;;;;;;;10.25;55.65;100708.89;108017;1290;22194;-80
2022/05/02 02:52:29;;;;;;;12.10;9.10;;;;;;;10.24;55.75;100709.77;107742;1290;23314;-82
2022/05/02 02:54:55;;;;;;;12.40;8.30;;;;;;;10.21;55.80;100707.84;108022;1290;22358;-82
2022/05/02 02:57:21;;;;;;;12.70;9.20;;;;;;;10.21;56.06;100709.95;107597;1290;22286;-85
2022/05/02 02:59:48;;;;;;;12.20;9.20;;;;;;;10.18;55.96;100707.48;107464;1290;22358;-84
2022/05/02 03:02:14;;;;;;;12.00;8.80;;;;;;;10.20;56.01;100711.00;108031;1290;22509;-78
2022/05/02 03:07:27;;;;;;;13.80;9.30;;;;;;;10.16;56.16;100711.35;107721;1291;22313;-82
2022/05/02 03:09:54;;;;;;;10.90;8.50;;;;;;;10.15;56.22;100710.50;107716;1290;22460;-81
2022/05/02 03:12:21;;;;;;;13.40;9.40;;;;;;;10.12;56.25;100704.70;108011;1290;22541;-78
2022/05/02 03:14:47;;;;;;;15.70;9.10;;;;;;;10.10;56.47;100712.25;107600;1290;22386;-80
2022/05/02 03:17:14;;;;;;;11.70;8.50;;;;;;;10.11;56.58;100714.37;107942;1290;22427;-81
2022/05/02 03:19:41;;;;;;;19.60;9.40;;;;;;;10.09;56.48;100705.91;108018;1290;22442;-81
2022/05/02 03:22:07;;;;;;;12.00;9.50;;;;;;;10.12;56.66;100716.13;107545;1290;22394;-81
2022/05/02 03:24:34;;;;;;;16.20;10.20;;;;;;;10.13;56.70;100716.31;107623;1290;22486;-81
2022/05/02 03:27:00;;;;;;;13.20;9.30;;;;;;;10.13;56.76;100714.55;107209;1297;22942;-82
2022/05/02 03:29:26;;;;;;;13.50;9.30;;;;;;;10.09;56.79;100716.31;107250;1297;22219;-82
2022/05/02 03:31:52;;;;;;;12.20;9.00;;;;;;;10.06;56.87;100716.13;107212;1297;22401;-82
2022/05/02 03:34:19;;;;;;;15.00;9.80;;;;;;;10.01;56.97;100711.73;106927;1301;22499;-81
2022/05/02 03:36:45;;;;;;;13.10;8.70;;;;;;;10.01;57.20;100710.68;106894;1302;22233;-83
2022/05/02 03:39:11;;;;;;;12.00;9.30;;;;;;;10.03;57.10;100709.09;106941;1301;23561;-82
2022/05/02 03:41:37;;;;;;;11.60;8.60;;;;;;;10.02;57.11;100709.63;106957;1302;22417;-82
2022/05/02 03:44:04;;;;;;;11.40;9.00;;;;;;;10.02;57.18;100711.74;106908;1302;22981;-86
2022/05/02 03:46:30;;;;;;;14.20;9.00;;;;;;;10.04;57.26;100711.05;107107;1297;23268;-84
2022/05/02 03:48:57;;;;;;;13.40;9.80;;;;;;;10.07;57.34;100714.91;107125;1297;22252;-81
2022/05/02 03:51:23;;;;;;;15.50;9.60;;;;;;;10.04;57.27;100715.96;107117;1297;22429;-82
2022/05/02 03:53:50;;;;;;;11.50;9.00;;;;;;;10.03;57.43;100716.31;107850;1290;22438;-82
2022/05/02 03:56:16;;;;;;;16.90;9.50;;;;;;;10.06;57.52;100714.91;107429;1293;23174;-80
2022/05/02 03:58:42;;;;;;;14.50;9.20;;;;;;;10.09;57.38;100715.61;107891;1290;23061;-80
2022/05/02 04:01:09;;;;;;;13.30;9.50;;;;;;;10.07;57.42;100714.19;107562;1290;22407;-79
2022/05/02 04:03:35;;;;;;;14.70;10.60;;;;;;;10.11;57.44;100717.20;107950;1290;23026;-78
2022/05/02 04:06:02;;;;;;;13.40;9.20;;;;;;;10.12;57.43;100715.79;107720;1290;22377;-78
2022/05/02 04:08:28;;;;;;;15.30;9.70;;;;;;;10.09;57.43;100712.09;107957;1290;23198;-76
2022/05/02 04:10:55;;;;;;;16.30;9.00;;;;;;;10.12;57.57;100715.61;107605;1290;22369;-77
2022/05/02 04:13:22;;;;;;;14.10;9.50;;;;;;;10.18;57.58;100717.69;107630;1290;23145;-78
2022/05/02 04:15:49;;;;;;;13.90;9.60;;;;;;;10.21;57.47;100718.39;107761;1291;22374;-75
2022/05/02 04:18:16;;;;;;;12.10;9.40;;;;;;;10.23;57.40;100718.56;107708;1290;22624;-78
2022/05/02 04:20:43;;;;;;;11.80;9.20;;;;;;;10.18;57.36;100719.11;107454;1293;23078;-82
2022/05/02 04:23:09;;;;;;;14.30;9.20;;;;;;;10.15;57.53;100724.21;107576;1293;23063;-84
2022/05/02 04:25:36;;;;;;;12.90;9.20;;;;;;;10.16;57.58;100727.56;107562;1293;23276;-84
2022/05/02 04:28:02;;;;;;;11.90;9.70;;;;;;;10.17;57.66;100727.55;107552;1293;23196;-83
2022/05/02 04:30:29;;;;;;;12.60;9.30;;;;;;;10.18;57.69;100728.08;107470;1293;22268;-83
2022/05/02 04:32:55;;;;;;;11.90;8.90;;;;;;;10.21;57.70;100730.88;107114;1298;22204;-83
2022/05/02 04:35:22;;;;;;;11.80;8.60;;;;;;;10.26;57.66;100731.05;107125;1298;22497;-83
2022/05/02 04:37:48;;;;;;;12.50;9.40;;;;;;;10.24;57.67;100726.48;107112;1299;22403;-83
2022/05/02 04:40:14;;;;;;;12.30;9.30;;;;;;;10.33;57.73;100731.21;107115;1299;23317;-82
2022/05/02 04:42:41;;;;;;;12.70;9.20;;;;;;;10.35;57.63;100730.69;107148;1299;22245;-83
2022/05/02 04:45:08;;;;;;;12.60;9.40;;;;;;;10.39;57.52;100730.33;106786;1298;22189;-79
2022/05/02 04:47:34;;;;;;;13.70;9.70;;;;;;;10.44;57.61;100728.02;107116;1298;22467;-82
2022/05/02 04:50:03;;;;;;;11.70;9.30;;;;;;;10.49;57.54;100727.86;107152;1291;22487;-77
2022/05/02 04:52:29;;;;;;;16.60;8.50;;;;;;;10.54;57.39;100725.38;107955;1290;23271;-79
2022/05/02 04:54:56;;;;;;;11.10;8.70;;;;;;;10.60;57.25;100726.77;107747;1290;23095;-80
2022/05/02 04:57:22;;;;;;;13.00;8.60;;;;;;;10.64;57.20;100729.73;107995;1290;22189;-81
2022/05/02 04:59:48;;;;;;;13.90;9.30;;;;;;;10.68;57.04;100728.67;107309;1295;23085;-83
2022/05/02 05:02:14;;;;;;;12.60;8.40;;;;;;;10.68;56.91;100726.20;107307;1295;23266;-82
2022/05/02 05:04:41;;;;;;;11.90;8.40;;;;;;;10.70;56.79;100723.91;107306;1294;22427;-82
2022/05/02 05:07:07;;;;;;;12.00;8.60;;;;;;;10.72;56.70;100720.73;107324;1295;227546;-82
2022/05/02 05:09:33;;;;;;;11.40;8.60;;;;;;;10.76;56.75;100720.69;107316;1296;22729;-84
2022/05/02 05:12:21;;;;;;;11.20;8.10;;;;;;;10.81;56.55;100721.56;107442;1295;22996;-83
2022/05/02 05:18:17;;;;;;;13.10;9.40;;;;;;;10.88;56.26;100717.66;107509;1291;22486;-84
2022/05/02 05:21:02;;;;;;;13.10;8.20;;;;;;;10.93;56.09;100715.33;107832;1291;23086;-83
2022/05/02 05:24:02;;;;;;;13.10;8.20;;;;;;;10.99;55.79;100715.84;108106;1290;22396;-85
2022/05/02 05:27:03;;;;;;;12.80;7.70;;;;;;;11.06;55.72;100715.27;107280;1297;23587;-83
2022/05/02 05:29:56;;;;;;;14.70;8.10;;;;;;;11.11;55.59;100713.12;107071;1297;22503;-84
2022/05/02 05:32:46;;;;;;;17.20;7.90;;;;;;;11.19;55.40;100714.66;107144;1297;23244;-84
2022/05/02 05:35:20;;;;;;;13.20;7.40;;;;;;;11.29;54.96;100708.60;107125;1297;22401;-85
2022/05/02 05:38:09;;;;;;;11.70;7.30;;;;;;;11.38;54.70;100709.41;107179;1298;22750;-82
2022/05/02 05:40:42;;;;;;;8.60;7.20;;;;;;;11.41;54.28;100701.82;107166;1298;22302;-87
2022/05/02 05:43:26;;;;;;;13.80;7.30;;;;;;;11.46;53.81;100703.71;107164;1299;23161;-86
2022/05/02 05:46:07;;;;;;;9.90;6.90;;;;;;;11.54;53.60;100710.17;107999;1290;22162;-86
2022/05/02 05:48:55;;;;;;;8.50;6.00;;;;;;;11.61;53.21;100710.11;107658;1290;22523;-87
2022/05/02 05:51:32;;;;;;;8.50;6.00;;;;;;;11.70;52.93;100713.40;108021;1290;22523;-85
2022/05/02 05:54:11;;;;;;;13.50;6.30;;;;;;;11.78;52.60;100708.38;107766;1290;22398;-86
2022/05/02 05:56:52;;;;;;;7.70;5.70;;;;;;;11.85;52.25;100705.49;107642;1290;22595;-87
2022/05/02 05:59:33;;;;;;;10.50;6.20;;;;;;;11.95;52.05;100708.06;107995;1290;22349;-87
2022/05/02 06:02:06;;;;;;;10.70;5.50;;;;;;;12.03;51.51;100705.69;108046;1290;22424;-88
2022/05/02 06:04:34;;;;;;;8.30;5.60;;;;;;;12.11;51.46;100704.39;107763;1290;22500;-87
2022/05/02 06:07:02;;;;;;;10.70;6.30;;;;;;;12.18;51.14;100699.90;107284;1296;22461;-87
2022/05/02 06:09:30;;;;;;;6.00;5.10;;;;;;;12.23;50.82;100700.02;107223;1296;23038;-87
2022/05/02 06:12:00;;;;;;;11.10;6.10;;;;;;;12.30;50.67;100694.12;107291;1296;22964;-88
2022/05/02 06:14:30;;;;;;;8.20;5.70;;;;;;;12.37;50.37;100695.46;107160;1296;22512;-90
2022/05/02 06:19:48;;;;;;;7.90;6.30;;;;;;;12.50;50.14;100691.61;107308;1296;22421;-89
2022/05/02 06:22:17;;;;;;;10.80;5.70;;;;;;;12.56;49.89;100691.35;107209;1296;23170;-88
2022/05/02 06:24:46;;;;;;;7.30;5.70;;;;;;;12.62;49.85;100691.11;107560;1290;22404;-88
2022/05/02 06:27:13;;;;;;;6.50;5.40;;;;;;;12.70;49.31;100689.06;107672;1290;22329;-89
2022/05/02 06:29:41;;;;;;;10.40;5.40;;;;;;;12.74;48.88;100691.29;107738;1290;22424;-89
2022/05/02 06:32:12;;;;;;;9.80;4.80;;;;;;;12.78;48.65;100689.48;107808;1290;22361;-89
2022/05/02 06:34:39;;;;;;;10.20;4.90;;;;;;;12.84;48.44;100693.81;107707;1290;22527;-89
2022/05/02 06:37:45;;;;;;;9.00;4.60;;;;;;;12.91;48.14;100696.73;107919;1290;22241;-87
2022/05/02 06:40:30;;;;;;;7.80;5.10;;;;;;;12.98;47.85;100697.68;107943;1290;22393;-87
2022/05/02 06:43:06;;;;;;;12.10;5.60;;;;;;;13.03;47.84;100697.80;107720;1291;22428;-86
2022/05/02 06:45:35;;;;;;;;;;;;;;;13.07;47.78;100695.27;107761;1290;22466;-86
2022/05/02 06:48:18;;;;;;;8.60;4.80;;;;;;;13.11;47.80;100693.78;107957;1290;23549;-86
2022/05/02 06:50:49;;;;;;;7.50;4.90;;;;;;;13.19;47.53;100695.61;107640;1291;22418;-85
2022/05/02 06:53:37;;;;;;;9.10;4.90;;;;;;;13.25;47.28;100692.70;107579;1293;22461;-85
2022/05/02 06:56:29;;;;;;;8.20;4.60;;;;;;;13.34;47.21;100687.95;107975;1290;22371;-87
2022/05/02 06:59:24;;;;;;;7.80;4.70;;;;;;;13.43;47.01;100683.02;108074;1290;22348;-88
2022/05/02 07:01:56;;;;;;;9.70;5.30;;;;;;;13.52;46.74;100680.98;107708;1290;22380;-88
2022/05/02 07:04:25;;;;;;;5.70;4.30;;;;;;;13.56;46.51;100683.56;107782;1291;22454;-88
2022/05/02 07:07:21;;;;;;;7.70;5.10;;;;;;;13.64;46.41;100676.36;107952;1290;23256;-89
2022/05/02 07:10:07;;;;;;;9.40;4.80;;;;;;;13.74;46.09;100680.08;108013;1290;22455;-87
2022/05/02 07:13:05;;;;;;;10.80;5.10;;;;;;;13.82;45.89;100681.53;107838;1290;22259;-89
2022/05/02 07:15:53;;;;;;;6.70;4.60;;;;;;;13.94;45.88;100679.20;107791;1290;22459;-88
2022/05/02 07:18:45;;;;;;;6.20;4.50;;;;;;;14.06;45.78;100679.50;107884;1290;22520;-87
2022/05/02 07:21:33;;;;;;;8.80;4.80;;;;;;;14.20;45.42;100678.70;108210;1290;22350;-88
2022/05/02 07:24:13;;;;;;;6.50;4.50;;;;;;;14.36;45.63;100680.69;108228;1290;22323;-88
2022/05/02 07:26:41;;;;;;;9.20;4.90;;;;;;;14.52;45.58;100681.61;108119;1291;22400;-88
2022/05/02 07:29:08;;;;;;;7.40;4.60;;;;;;;14.65;45.16;100681.34;108195;1290;23656;-87
2022/05/02 07:31:37;;;;;;;10.50;4.90;;;;;;;14.79;44.98;100684.23;108199;1290;22371;-88
2022/05/02 07:34:03;;;;;;;8.70;5.10;;;;;;;14.91;44.79;100685.58;108172;1290;22394;-89
2022/05/02 07:36:33;;;;;;;7.00;4.60;;;;;;;15.03;44.32;100685.33;107762;1291;22535;-82
2022/05/02 07:39:05;;;;;;;9.80;5.70;;;;;;;15.15;43.94;100684.70;107422;1297;22334;-89
2022/05/02 07:41:32;;;;;;;7.00;4.30;;;;;;;15.26;43.80;100688.88;107546;1297;22407;-87
2022/05/02 07:44:08;;;;;;;7.80;4.80;;;;;;;15.36;43.64;100689.34;107460;1298;22529;-89
2022/05/02 07:46:41;;;;;;;8.40;4.90;;;;;;;15.45;43.37;100690.02;107395;1297;22575;-88
2022/05/02 07:49:09;;;;;;;10.20;5.20;;;;;;;15.51;43.05;100691.99;107440;1297;22408;-89
2022/05/02 07:51:47;;;;;;;9.60;5.00;;;;;;;15.55;42.90;100687.98;107325;1297;22537;-88
2022/05/02 07:54:23;;;;;;;5.10;4.10;;;;;;;15.62;43.01;100684.81;107400;1296;22476;-88
2022/05/02 07:56:51;;;;;;;7.70;4.80;;;;;;;15.67;42.46;100685.02;107563;1291;22921;-89
2022/05/02 07:59:33;;;;;;;9.70;5.20;;;;;;;15.72;42.24;100681.70;107966;1290;22423;-88
2022/05/02 08:02:00;;;;;;;8.50;4.40;;;;;;;15.76;41.73;100680.38;107961;1291;22411;-89
2022/05/02 08:04:27;;;;;;;5.50;4.30;;;;;;;15.76;41.30;100677.68;107384;1297;22516;-89
2022/05/02 08:07:33;;;;;;;9.20;5.10;;;;;;;15.80;41.37;100676.17;106814;1302;22356;-88
2022/05/02 08:10:35;;;;;;;8.70;4.50;;;;;;;15.94;41.45;100673.34;106465;1309;22190;-88
2022/05/02 08:13:21;;;;;;;7.70;4.10;;;;;;;16.05;41.56;100665.23;106367;1310;22185;-87
2022/05/02 08:15:57;;;;;;;5.20;4.20;;;;;;;16.24;41.69;100669.52;106499;1309;22242;-88
2022/05/02 08:19:01;;;;;;;7.80;4.10;;;;;;;16.43;41.57;100668.63;106396;1309;22485;-88
2022/05/02 08:21:32;;;;;;;5.60;4.10;;;;;;;16.64;41.05;100662.52;105934;1310;22312;-88
2022/05/02 08:27:31;;;;;;;7.80;3.90;;;;;;;16.91;40.33;100660.29;107315;1296;23139;-86
2022/05/02 08:30:09;;;;;;;7.10;4.00;;;;;;;17.01;39.99;100656.02;107365;1294;22441;-88
2022/05/02 08:32:40;;;;;;;8.10;4.50;;;;;;;17.15;39.58;100658.66;107273;1297;22258;-85
2022/05/02 08:35:13;;;;;;;7.40;4.20;;;;;;;17.30;39.55;100658.36;107353;1297;22423;-86
2022/05/02 08:38:00;;;;;;;11.60;5.10;;;;;;;17.43;39.61;100656.52;107384;1296;22808;-88
2022/05/02 08:40:39;;;;;;;10.00;4.90;;;;;;;17.57;39.45;100652.65;107421;1291;22525;-89
2022/05/02 08:43:27;;;;;;;7.70;5.00;;;;;;;17.67;39.03;100654.45;108045;1290;22519;-89
2022/05/02 08:46:15;;;;;;;7.70;4.80;;;;;;;17.80;38.53;100650.45;108089;1290;22545;-88
2022/05/02 08:49:36;;;;;;;7.50;4.00;;;;;;;17.97;38.19;100650.39;108105;1290;22278;-91
2022/05/02 08:52:14;;;;;;;7.20;4.30;;;;;;;18.09;38.12;100641.03;108163;1290;22416;-89
2022/05/02 08:54:56;;;;;;;8.00;3.70;;;;;;;18.22;37.83;100640.79;108212;1290;22477;-88
2022/05/02 08:57:41;;;;;;;6.00;4.10;;;;;;;18.33;37.14;100636.09;108233;1290;22381;-88
2022/05/02 09:00:37;;;;;;;8.90;4.50;;;;;;;18.40;37.14;100636.02;108360;1290;22430;-89
2022/05/02 09:03:44;;;;;;;8.30;4.40;;;;;;;18.49;37.02;100631.90;108301;1290;22364;-89
2022/05/02 09:06:22;;;;;;;6.10;4.60;;;;;;;18.56;37.10;100629.89;108102;1289;22474;-90
2022/05/02 09:09:28;;;;;;;7.50;4.10;;;;;;;18.66;37.08;100624.67;108130;1290;22424;-91
2022/05/02 09:12:19;;;;;;;7.70;4.20;;;;;;;18.70;35.56;100619.52;108108;1290;22478;-90
2022/05/02 09:15:09;;;;;;;8.90;4.40;;;;;;;18.61;35.71;100620.95;107400;1296;22414;-91
2022/05/02 09:17:50;;;;;;;8.10;4.20;;;;;;;18.73;36.02;100613.70;107348;1297;22515;-91
2022/05/02 09:20:53;;;;;;;8.80;3.80;;;;;;;18.90;35.50;100609.48;107410;1296;22529;-90
2022/05/02 09:23:37;;;;;;;6.10;4.20;;;;;;;19.05;35.67;100608.16;107366;1296;22901;-89
2022/05/02 09:26:07;;;;;;;10.10;4.40;;;;;;;19.20;35.22;100608.09;107401;1296;22228;-90
2022/05/02 09:29:04;;;;;;;5.60;4.20;;;;;;;19.34;35.15;100606.45;107285;1296;22546;-88
2022/05/02 09:31:58;;;;;;;5.80;4.70;;;;;;;19.44;34.74;100602.29;107371;1296;22678;-90
2022/05/02 09:34:44;;;;;;;6.60;4.10;;;;;;;19.64;34.53;100597.30;107996;1290;22553;-89
2022/05/02 09:37:38;;;;;;;7.90;4.00;;;;;;;19.82;34.44;100596.52;108017;1290;23121;-90
2022/05/02 09:40:15;;;;;;;5.70;3.90;;;;;;;19.90;34.10;100597.79;107894;1290;22404;-89
2022/05/02 09:43:00;;;;;;;9.50;4.50;;;;;;;19.95;33.54;100596.48;108043;1290;22364;-89
2022/05/02 09:51:55;;;;;;;8.00;4.40;;;;;;;19.70;32.65;100591.70;107428;1296;22525;-90
2022/05/02 09:57:33;;;;;;;7.30;4.90;;;;;;;19.91;32.42;100587.01;106743;1302;22327;-91
2022/05/02 10:03:04;;;;;;;6.90;3.80;;;;;;;20.29;32.77;100576.20;106480;1308;22274;-90
2022/05/02 10:05:49;;;;;;;7.20;4.00;;;;;;;20.57;32.47;100569.34;106380;1311;22321;-89
2022/05/02 10:08:53;;;;;;;11.70;3.90;;;;;;;20.64;31.83;100565.95;106559;1311;22223;-84
2022/05/02 10:11:38;;;;;;;4.40;3.40;;;;;;;20.77;31.21;100568.20;106403;1311;22237;-80
2022/05/02 10:14:23;;;;;;;7.70;4.00;;;;;;;20.75;30.97;100554.16;106448;1311;22313;-88
2022/05/02 10:17:06;;;;;;;4.00;3.00;;;;;;;20.76;30.96;100550.54;106787;1305;22479;-87
2022/05/02 10:20:11;;;;;;;4.40;3.50;;;;;;;20.75;31.44;100549.52;106946;1302;22228;-82
2022/05/02 10:22:56;;;;;;;5.00;3.50;;;;;;;21.04;31.71;100539.35;107052;1296;22525;-81
2022/05/02 10:25:36;;;;;;;6.40;3.30;;;;;;;21.39;31.45;100544.57;107526;1293;22374;-81
2022/05/02 10:28:09;;;;;;;5.90;3.50;;;;;;;21.59;31.24;100541.04;107672;1293;22392;-81
2022/05/02 10:30:52;;;;;;;6.10;3.00;;;;;;;21.49;31.04;100537.02;107993;1290;23384;-82
2022/05/02 10:34:07;;;;;;;3.30;3.00;;;;;;;21.24;30.78;100540.86;107765;1290;22196;-82
2022/05/02 10:36:39;;;;;;;6.80;3.30;;;;;;;20.94;31.19;100543.43;107962;1290;22536;-82
2022/05/02 10:39:18;;;;;;;7.80;3.40;;;;;;;20.77;31.33;100537.24;107631;1290;22599;-80
2022/05/02 10:41:48;;;;;;;6.30;3.80;;;;;;;20.70;31.40;100535.80;108060;1290;22438;-82
2022/05/02 10:44:16;;;;;;;6.00;3.60;;;;;;;20.70;31.52;100531.32;107559;1293;22416;-81
2022/05/02 10:46:45;;;;;;;7.00;3.40;;;;;;;20.60;31.67;100530.73;107695;1290;22363;-81
2022/05/02 10:49:48;;;;;;;6.30;3.20;;;;;;;20.52;31.92;100530.93;107995;1290;22368;-81
2022/05/02 10:52:30;;;;;;;5.80;3.40;;;;;;;20.38;31.98;100528.05;108109;1290;22420;-80
2022/05/02 10:55:05;;;;;;;5.60;3.10;;;;;;;20.24;32.34;100528.69;107943;1289;22379;-82
2022/05/02 10:57:38;;;;;;;4.90;3.50;;;;;;;20.31;32.55;100528.55;108072;1290;22370;-82
2022/05/02 11:00:09;;;;;;;5.80;3.70;;;;;;;20.30;32.53;100525.91;108046;1290;22442;-81
2022/05/02 11:03:12;;;;;;;4.80;3.00;;;;;;;20.31;32.94;100524.60;107418;1296;22546;-81
2022/05/02 11:05:57;;;;;;;3.50;3.20;;;;;;;20.34;32.84;100521.43;107533;1297;22520;-81
2022/05/02 11:08:35;;;;;;;6.20;3.20;;;;;;;20.35;32.72;100519.77;107432;1297;22505;-82
2022/05/02 11:11:06;;;;;;;5.30;3.60;;;;;;;20.38;32.80;100516.61;107044;1302;22244;-82
2022/05/02 11:13:48;;;;;;;5.90;3.30;;;;;;;20.35;32.45;100517.48;107060;1301;22668;-81
2022/05/02 11:16:35;;;;;;;5.40;3.40;;;;;;;20.30;32.44;100512.84;107009;1302;22219;-81
2022/05/02 11:22:20;;;;;;;4.10;3.30;;;;;;;19.84;32.77;100521.38;107625;1296;22391;-81
2022/05/02 11:25:14;;;;;;;4.90;3.30;;;;;;;19.53;33.86;100521.88;107676;1296;22384;-81
2022/05/02 11:28:03;;;;;;;6.40;3.70;;;;;;;19.23;33.75;100515.13;107663;1296;22388;-80
2022/05/02 11:30:40;;;;;;;4.80;3.70;;;;;;;19.01;34.43;100516.94;107890;1290;22456;-81
2022/05/02 11:33:30;;;;;;;5.90;3.70;;;;;;;18.93;34.94;100511.90;107479;1297;23210;-81
2022/05/02 11:36:02;;;;;;;4.90;3.60;;;;;;;18.91;35.76;100513.78;107557;1297;22546;-82
2022/05/02 11:38:41;;;;;;;6.20;4.10;;;;;;;18.94;36.54;100515.98;107352;1296;22556;-81
2022/05/02 11:41:15;;;;;;;7.60;3.60;;;;;;;18.93;36.67;100511.54;107559;1296;23238;-81
2022/05/02 11:43:44;;;;;;;3.90;3.50;;;;;;;18.91;36.34;100509.13;107596;1297;22382;-81
2022/05/02 11:46:26;;;;;;;6.60;3.60;;;;;;;18.90;36.28;100507.23;107405;1296;22422;-82
2022/05/02 11:49:18;;;;;;;6.90;3.70;;;;;;;18.96;35.48;100503.57;107576;1296;22550;-82
2022/05/02 11:51:50;;;;;;;6.60;3.70;;;;;;;19.21;35.65;100497.92;107779;1290;22425;-80
2022/05/02 11:54:28;;;;;;;5.90;3.70;;;;;;;19.78;35.38;100495.92;108113;1290;22408;-82
2022/05/02 11:56:59;;;;;;;9.00;4.10;;;;;;;20.37;34.58;100491.04;107851;1290;22420;-81
2022/05/02 11:59:51;;;;;;;8.80;3.70;;;;;;;20.94;34.14;100481.83;107715;1290;23022;-80
2022/05/02 12:02:38;;;;;;;4.80;3.50;;;;;;;21.50;33.41;100479.70;107970;1290;22554;-81
2022/05/02 12:05:23;;;;;;;4.20;2.90;;;;;;;21.96;31.32;100475.26;108118;1290;22552;-81
2022/05/02 12:07:53;;;;;;;3.50;2.70;;;;;;;21.94;30.05;100471.96;107552;1290;22366;-81
2022/05/02 12:10:48;;;;;;;3.00;2.70;;;;;;;22.17;30.21;100467.31;108029;1290;22518;-80
2022/05/02 12:13:18;;;;;;;3.70;2.90;;;;;;;22.61;29.37;100464.94;107947;1290;22918;-82
2022/05/02 12:16:00;;;;;;;4.90;2.70;;;;;;;22.81;28.69;100459.17;107547;1290;22400;-82
2022/05/02 12:18:46;;;;;;;3.30;2.60;;;;;;;22.94;28.36;100452.80;107624;1290;22167;-81